Time;durP1;ratioP1;P1;durP2;ratioP2;P2;SDS_P1;SDS_P2;PMS_P1;PMS_P2;Temp;Humidity;BMP_temperature;BMP_pressure;BME280_temperature;BME280_humidity;BME280_pressure;Samples;Min_cycle;Max_cycle;Signal;HPM_P1;HPM_P2
2022/11/08 00:02:30;;;;;;;89.63;46.93;;;;;;;11.40;100.00;95129.69;5023418;28;20197;-77
2022/11/08 00:15:51;;;;;;;88.37;45.77;;;;;;;11.68;100.00;95118.88;4990699;28;20188;-80
2022/11/08 00:18:18;;;;;;;97.53;45.97;;;;;;;11.71;100.00;95121.09;5025251;28;20649;-81
2022/11/08 00:20:46;;;;;;;92.93;45.57;;;;;;;11.78;100.00;95115.78;5020952;28;20679;-81
2022/11/08 00:23:13;;;;;;;91.50;45.43;;;;;;;11.75;100.00;95111.00;5029260;28;20280;-80
2022/11/08 00:25:40;;;;;;;81.87;44.10;;;;;;;11.82;100.00;95116.97;5033402;28;20198;-80
2022/11/08 00:28:06;;;;;;;83.87;43.03;;;;;;;11.86;100.00;95120.75;5022041;28;20639;-79
2022/11/08 00:30:33;;;;;;;80.23;40.93;;;;;;;11.87;100.00;95117.94;5018608;28;20698;-81
2022/11/08 00:33:00;;;;;;;74.00;40.27;;;;;;;11.88;100.00;95119.53;5016015;28;20195;-80
2022/11/08 00:35:27;;;;;;;77.93;40.97;;;;;;;11.87;100.00;95117.94;5024508;28;20606;-79
2022/11/08 00:37:55;;;;;;;81.53;41.23;;;;;;;11.87;100.00;95119.72;5018588;28;20213;-80
2022/11/08 00:40:22;;;;;;;76.37;40.00;;;;;;;11.90;100.00;95121.91;5033372;28;20669;-78
2022/11/08 00:42:48;;;;;;;75.33;40.80;;;;;;;11.77;100.00;95112.41;5030622;28;20199;-80
2022/11/08 00:45:15;;;;;;;76.30;41.33;;;;;;;11.34;100.00;95117.50;5030764;28;20188;-80
2022/11/08 00:47:42;;;;;;;75.97;41.57;;;;;;;10.92;100.00;95115.56;5022178;28;20227;-80
2022/11/08 00:50:10;;;;;;;82.50;42.90;;;;;;;11.00;100.00;95110.13;5013727;28;20223;-79
2022/11/08 00:52:36;;;;;;;70.47;37.97;;;;;;;11.14;100.00;95113.47;5014070;28;20537;-79
2022/11/08 00:55:05;;;;;;;72.30;38.93;;;;;;;11.18;100.00;95120.63;5030519;28;20197;-80
2022/11/08 00:57:32;;;;;;;61.47;34.73;;;;;;;10.92;100.00;95104.38;5017528;28;20192;-82
2022/11/08 00:59:59;;;;;;;69.70;35.87;;;;;;;10.73;100.00;95114.69;5016001;28;20193;-81
2022/11/08 01:02:26;;;;;;;67.10;38.23;;;;;;;10.65;100.00;95111.50;5016407;28;20202;-79
2022/11/08 01:04:52;;;;;;;63.80;37.47;;;;;;;10.72;100.00;95107.88;5021804;28;20673;-79
2022/11/08 01:07:19;;;;;;;67.63;36.87;;;;;;;10.88;100.00;95108.41;5020924;28;20246;-78
2022/11/08 01:09:46;;;;;;;69.50;36.77;;;;;;;11.01;100.00;95111.72;5022671;28;20195;-77
2022/11/08 01:12:14;;;;;;;75.37;38.47;;;;;;;11.14;100.00;95110.84;5020854;28;20282;-76
2022/11/08 01:14:41;;;;;;;68.10;38.03;;;;;;;11.30;100.00;95111.16;5020174;28;20195;-77
2022/11/08 01:17:08;;;;;;;67.13;36.90;;;;;;;11.28;100.00;95110.53;5022194;28;20194;-78
2022/11/08 01:19:35;;;;;;;73.33;37.47;;;;;;;11.33;100.00;95108.13;5021579;28;20662;-77
2022/11/08 01:22:02;;;;;;;73.90;39.27;;;;;;;11.42;100.00;95105.25;5020769;28;20690;-77
2022/11/08 01:24:28;;;;;;;71.47;38.20;;;;;;;11.40;100.00;95101.03;5030093;28;20205;-79
2022/11/08 01:26:55;;;;;;;63.53;37.13;;;;;;;11.48;100.00;95104.41;5033538;28;20206;-80
2022/11/08 01:29:23;;;;;;;68.60;37.27;;;;;;;11.51;100.00;95096.19;5013679;28;20656;-78
2022/11/08 01:31:50;;;;;;;68.10;37.57;;;;;;;11.56;100.00;95107.56;5025812;28;20215;-80
2022/11/08 01:34:17;;;;;;;69.07;37.23;;;;;;;11.59;100.00;95111.53;5029276;28;20198;-79
2022/11/08 01:36:44;;;;;;;65.17;37.47;;;;;;;11.62;100.00;95117.13;5032481;28;20195;-80
2022/11/08 01:39:10;;;;;;;74.43;37.27;;;;;;;11.66;100.00;95105.25;5017339;28;20199;-81
2022/11/08 01:41:39;;;;;;;66.30;36.90;;;;;;;11.69;100.00;95109.22;5015497;28;20199;-80
2022/11/08 01:44:05;;;;;;;77.63;39.17;;;;;;;11.71;100.00;95113.28;5023510;28;20303;-80
2022/11/08 01:46:36;;;;;;;67.43;36.73;;;;;;;11.73;100.00;95105.22;5019373;28;20785;-78
2022/11/08 01:49:40;;;;;;;70.43;37.37;;;;;;;11.57;100.00;95103.91;5019878;28;20282;-78
2022/11/08 01:52:14;;;;;;;67.57;36.67;;;;;;;11.22;100.00;95095.00;5019452;28;20242;-77
2022/11/08 01:54:46;;;;;;;62.53;35.40;;;;;;;10.99;100.00;95097.34;5022674;28;20249;-77
2022/11/08 01:57:16;;;;;;;59.17;34.23;;;;;;;10.92;100.00;95094.78;5021479;28;20210;-77
2022/11/08 01:59:46;;;;;;;68.00;34.57;;;;;;;10.99;100.00;95102.53;5022058;28;20187;-76
2022/11/08 02:02:15;;;;;;;59.93;36.33;;;;;;;11.11;100.00;95103.47;5020695;28;20188;-77
2022/11/08 02:04:43;;;;;;;66.00;33.57;;;;;;;11.20;100.00;95102.19;5020415;28;20569;-77
2022/11/08 02:07:12;;;;;;;62.80;33.33;;;;;;;11.39;100.00;95115.09;5017585;28;20270;-76
2022/11/08 02:09:42;;;;;;;58.73;34.13;;;;;;;11.46;100.00;95106.44;5022862;28;20223;-78
2022/11/08 02:12:10;;;;;;;64.00;35.30;;;;;;;11.23;100.00;95112.97;5018058;28;20242;-77
2022/11/08 02:14:37;;;;;;;62.27;35.30;;;;;;;10.93;100.00;95105.97;5020360;28;20194;-77
2022/11/08 02:17:04;;;;;;;68.00;38.33;;;;;;;10.78;100.00;95103.66;5022838;28;20628;-77
2022/11/08 02:19:38;;;;;;;71.43;37.97;;;;;;;10.83;100.00;95103.81;5026388;28;20203;-80
2022/11/08 02:22:10;;;;;;;68.70;37.20;;;;;;;10.96;100.00;95110.75;5017377;28;20281;-77
2022/11/08 02:24:39;;;;;;;64.40;36.63;;;;;;;11.05;100.00;95117.31;5020387;28;20218;-79
2022/11/08 02:27:06;;;;;;;64.17;35.63;;;;;;;11.13;100.00;95117.06;5024964;28;20191;-77
2022/11/08 02:29:35;;;;;;;61.17;35.23;;;;;;;11.22;100.00;95103.59;5020448;28;20684;-78
2022/11/08 02:32:04;;;;;;;69.83;34.73;;;;;;;11.26;100.00;95099.56;5019114;28;20216;-77
2022/11/08 02:34:35;;;;;;;63.33;34.97;;;;;;;11.38;100.00;95103.06;5016763;28;20195;-80
2022/11/08 02:37:03;;;;;;;58.47;34.07;;;;;;;11.46;100.00;95104.59;5016842;28;20202;-76
2022/11/08 02:39:31;;;;;;;61.47;33.80;;;;;;;11.51;100.00;95106.59;5020491;28;20206;-77
2022/11/08 02:42:00;;;;;;;60.17;33.37;;;;;;;11.51;100.00;95109.19;5024410;28;20218;-78
2022/11/08 02:44:26;;;;;;;63.70;33.67;;;;;;;11.55;100.00;95098.13;5019317;28;20201;-77
2022/11/08 02:46:53;;;;;;;56.13;32.67;;;;;;;11.60;100.00;95106.09;5018946;28;20690;-78
2022/11/08 02:49:20;;;;;;;57.37;31.63;;;;;;;11.53;100.00;95092.34;5018944;28;20207;-78
2022/11/08 02:51:47;;;;;;;55.20;33.30;;;;;;;11.56;100.00;95107.56;5022298;28;20207;-80
2022/11/08 02:54:14;;;;;;;58.33;32.40;;;;;;;11.68;100.00;95105.06;5025086;28;20200;-79
2022/11/08 02:56:40;;;;;;;58.47;32.80;;;;;;;11.45;100.00;95107.44;5019350;28;20195;-78
2022/11/08 02:59:08;;;;;;;58.90;33.03;;;;;;;11.14;100.00;95106.44;5016359;28;20191;-78
2022/11/08 03:01:35;;;;;;;62.77;34.47;;;;;;;10.91;100.00;95095.75;5016266;28;20198;-78
2022/11/08 03:04:02;;;;;;;61.37;34.97;;;;;;;10.91;100.00;95103.56;5018889;28;20198;-76
2022/11/08 03:06:29;;;;;;;59.97;34.70;;;;;;;10.93;100.00;95098.97;5021293;28;20199;-76
2022/11/08 03:08:56;;;;;;;65.10;34.07;;;;;;;10.99;100.00;95095.53;5018548;28;20206;-76
2022/11/08 03:11:22;;;;;;;58.97;34.43;;;;;;;11.09;100.00;95097.66;5021053;28;20237;-76
2022/11/08 03:13:49;;;;;;;62.23;34.63;;;;;;;11.26;100.00;95111.75;5020787;28;20684;-76
2022/11/08 03:16:17;;;;;;;56.40;34.37;;;;;;;11.40;100.00;95105.44;5022110;28;20306;-76
2022/11/08 03:18:44;;;;;;;64.17;35.03;;;;;;;11.46;100.00;95102.00;5022852;28;20709;-76
2022/11/08 03:21:11;;;;;;;63.40;33.77;;;;;;;11.37;100.00;95121.50;5024462;28;20186;-79
2022/11/08 03:23:38;;;;;;;62.33;34.43;;;;;;;11.14;100.00;95118.66;5024686;28;20217;-76
2022/11/08 03:26:05;;;;;;;69.30;35.00;;;;;;;10.88;100.00;95111.78;5024910;28;20685;-76
2022/11/08 03:28:32;;;;;;;66.57;36.27;;;;;;;10.85;100.00;95112.19;5023933;28;20195;-77
2022/11/08 03:30:59;;;;;;;68.70;37.00;;;;;;;10.94;100.00;95115.38;5023316;28;20224;-78
2022/11/08 03:33:27;;;;;;;61.67;35.83;;;;;;;11.10;100.00;95120.06;5022852;28;20203;-79
2022/11/08 03:35:54;;;;;;;65.23;35.83;;;;;;;11.19;100.00;95121.44;5026195;28;20191;-78
2022/11/08 03:38:21;;;;;;;59.27;34.53;;;;;;;11.25;100.00;95115.38;5020685;28;20196;-78
2022/11/08 03:40:48;;;;;;;61.27;34.30;;;;;;;11.33;100.00;95121.13;5021753;28;20191;-78
2022/11/08 03:43:15;;;;;;;63.13;34.87;;;;;;;11.37;100.00;95121.50;5027407;28;20218;-79
2022/11/08 03:45:42;;;;;;;58.87;36.13;;;;;;;11.40;100.00;95116.66;5026720;28;20205;-81
2022/11/08 03:48:09;;;;;;;64.10;35.87;;;;;;;11.52;100.00;95116.78;5017981;28;20269;-80
2022/11/08 03:50:37;;;;;;;62.03;36.27;;;;;;;11.53;100.00;95117.59;5019652;28;20217;-79
2022/11/08 03:53:04;;;;;;;67.60;36.57;;;;;;;11.57;100.00;95113.56;5015814;22;20234;-78
2022/11/08 03:55:31;;;;;;;67.33;36.20;;;;;;;11.60;100.00;95118.34;5007201;28;20196;-77
2022/11/08 03:57:58;;;;;;;57.97;35.23;;;;;;;11.64;100.00;95124.69;5002865;28;20199;-80
2022/11/08 04:00:27;;;;;;;61.10;35.57;;;;;;;11.52;100.00;95110.78;5004484;28;20616;-80
2022/11/08 04:02:55;;;;;;;60.60;35.73;;;;;;;11.64;100.00;95116.88;5008833;28;20229;-81
2022/11/08 04:05:22;;;;;;;59.30;34.93;;;;;;;11.68;100.00;95115.47;5015013;28;20203;-80
2022/11/08 04:07:50;;;;;;;64.27;35.67;;;;;;;11.62;100.00;95113.72;5002731;28;20192;-81
2022/11/08 04:10:17;;;;;;;58.93;35.20;;;;;;;11.44;100.00;95118.84;4995148;28;20196;-80
2022/11/08 04:15:30;;;;;;;65.97;37.27;;;;;;;10.84;100.00;95113.22;5006303;28;20199;-81
2022/11/08 04:23:29;;;;;;;72.40;39.60;;;;;;;11.11;100.00;95095.66;5013049;28;20210;-80
2022/11/08 04:25:58;;;;;;;85.77;46.77;;;;;;;11.09;100.00;95106.28;5013144;28;20206;-80
2022/11/08 04:28:26;;;;;;;78.77;43.50;;;;;;;11.11;100.00;95106.06;5011567;28;20196;-79
2022/11/08 04:30:54;;;;;;;70.53;39.67;;;;;;;10.95;100.00;95096.97;4994934;28;20200;-79
2022/11/08 04:33:21;;;;;;;64.40;36.43;;;;;;;10.82;100.00;95099.63;4997327;28;20228;-79
2022/11/08 04:35:48;;;;;;;64.20;37.60;;;;;;;10.63;100.00;95103.13;4997271;28;20199;-79
2022/11/08 04:38:15;;;;;;;69.73;39.97;;;;;;;10.66;100.00;95100.91;4996830;28;20290;-78
2022/11/08 04:40:43;;;;;;;76.03;41.93;;;;;;;10.76;100.00;95101.25;4997620;28;20200;-79
2022/11/08 04:43:11;;;;;;;74.20;40.60;;;;;;;10.90;100.00;95104.59;5014074;28;20497;-78
2022/11/08 04:45:38;;;;;;;70.13;40.47;;;;;;;10.98;100.00;95096.53;4996522;28;20196;-79
2022/11/08 04:48:05;;;;;;;73.07;40.17;;;;;;;11.10;100.00;95110.47;5000690;28;20191;-77
2022/11/08 04:50:32;;;;;;;77.83;42.33;;;;;;;11.18;100.00;95109.41;5001041;28;20192;-79
2022/11/08 04:52:59;;;;;;;72.40;41.87;;;;;;;11.28;100.00;95120.94;5005583;28;20694;-79
2022/11/08 04:55:25;;;;;;;68.50;41.00;;;;;;;11.32;100.00;95113.53;5003528;28;20584;-78
2022/11/08 04:57:57;;;;;;;68.50;39.40;;;;;;;11.35;100.00;95121.72;5014272;28;20235;-80
2022/11/08 05:00:27;;;;;;;77.87;41.60;;;;;;;11.48;100.00;95114.81;5014543;28;20191;-79
2022/11/08 05:02:54;;;;;;;75.60;42.33;;;;;;;11.58;100.00;95120.34;5014132;28;20199;-80
2022/11/08 05:05:23;;;;;;;73.53;42.93;;;;;;;11.56;100.00;95122.38;5008594;28;20200;-80
2022/11/08 05:07:50;;;;;;;67.97;40.50;;;;;;;11.47;100.00;95113.22;4995231;28;20207;-78
2022/11/08 05:10:17;;;;;;;71.80;41.23;;;;;;;11.56;100.00;95124.97;5002404;28;20229;-82
2022/11/08 05:12:44;;;;;;;80.07;41.57;;;;;;;11.54;100.00;95140.81;5004098;28;20226;-78
2022/11/08 05:15:12;;;;;;;68.87;39.47;;;;;;;11.51;100.00;95124.81;4995990;28;20287;-78
2022/11/08 05:17:39;;;;;;;69.30;42.13;;;;;;;11.46;100.00;95119.44;4996397;28;20199;-78
2022/11/08 05:25:45;;;;;;;81.40;46.43;;;;;;;10.84;100.00;95131.41;5007500;28;20192;-80
2022/11/08 05:28:12;;;;;;;78.97;46.13;;;;;;;10.95;100.00;95122.16;4994018;28;20287;-79
2022/11/08 05:30:40;;;;;;;78.47;45.77;;;;;;;11.05;100.00;95125.13;4996243;28;20204;-80
2022/11/08 05:33:07;;;;;;;75.80;44.73;;;;;;;11.15;100.00;95122.84;4993502;28;20256;-79
2022/11/08 05:35:34;;;;;;;79.00;43.87;;;;;;;11.30;100.00;95131.16;5003652;28;20189;-79
2022/11/08 05:38:01;;;;;;;80.40;42.23;;;;;;;11.37;100.00;95126.69;5003218;28;20203;-78
2022/11/08 05:40:28;;;;;;;78.10;43.23;;;;;;;11.46;100.00;95127.25;5003177;28;20554;-77
2022/11/08 05:42:55;;;;;;;74.07;42.90;;;;;;;11.49;100.00;95132.00;4995978;28;20227;-78
2022/11/08 05:45:22;;;;;;;73.23;41.67;;;;;;;11.15;100.00;95125.44;4999284;28;20196;-77
2022/11/08 05:47:50;;;;;;;73.93;41.73;;;;;;;10.90;100.00;95135.78;4999745;28;20195;-78
2022/11/08 05:50:17;;;;;;;89.33;46.27;;;;;;;10.87;100.00;95141.41;5000938;28;20584;-78
2022/11/08 05:52:44;;;;;;;91.93;48.97;;;;;;;10.98;100.00;95143.34;5015821;28;20234;-80
2022/11/08 05:55:11;;;;;;;91.40;53.10;;;;;;;11.10;100.00;95149.50;5003003;28;20200;-76
2022/11/08 05:57:42;;;;;;;103.27;54.30;;;;;;;11.17;100.00;95139.84;5012729;28;20199;-78
2022/11/08 06:00:10;;;;;;;106.43;59.00;;;;;;;11.30;100.00;95157.19;5005812;28;20223;-77
2022/11/08 06:02:36;;;;;;;124.57;71.40;;;;;;;11.42;100.00;95149.50;4998464;28;20198;-77
2022/11/08 06:05:06;;;;;;;127.73;72.80;;;;;;;11.53;100.00;95149.63;5004292;28;20194;-77
2022/11/08 06:07:32;;;;;;;129.57;73.70;;;;;;;11.75;100.00;95166.50;5002342;28;20202;-77
2022/11/08 06:09:59;;;;;;;116.03;67.47;;;;;;;11.84;100.00;95161.81;5004391;28;20200;-77
2022/11/08 06:12:26;;;;;;;99.87;55.17;;;;;;;11.70;100.00;95149.91;5005660;28;20227;-78
2022/11/08 06:14:53;;;;;;;97.17;53.43;;;;;;;11.70;100.00;95163.75;5010564;28;20203;-77
2022/11/08 06:17:19;;;;;;;85.07;48.93;;;;;;;11.73;100.00;95175.53;4999755;28;20210;-78
2022/11/08 06:19:46;;;;;;;72.90;40.03;;;;;;;11.75;100.00;95165.69;4993399;28;20207;-77
2022/11/08 06:22:14;;;;;;;70.03;41.27;;;;;;;11.73;100.00;95173.72;4996974;28;20196;-79
2022/11/08 06:24:41;;;;;;;72.20;41.40;;;;;;;11.79;100.00;95178.09;4998601;28;20204;-78
2022/11/08 06:27:09;;;;;;;77.10;44.43;;;;;;;11.84;100.00;95169.63;4998047;28;20192;-77
2022/11/08 06:29:36;;;;;;;79.97;43.77;;;;;;;11.87;100.00;95171.81;4997678;28;20207;-77
2022/11/08 06:32:03;;;;;;;64.77;38.03;;;;;;;11.73;100.00;95183.34;5003192;28;20270;-77
2022/11/08 06:34:29;;;;;;;61.73;36.97;;;;;;;11.46;100.00;95187.91;5000277;28;20192;-76
2022/11/08 06:36:58;;;;;;;67.57;38.53;;;;;;;11.44;100.00;95194.31;4994988;28;20196;-77
2022/11/08 06:39:26;;;;;;;65.57;37.40;;;;;;;11.50;100.00;95183.06;5001887;28;20681;-77
2022/11/08 06:41:53;;;;;;;61.93;36.27;;;;;;;11.58;100.00;95185.41;4996612;28;20196;-77
2022/11/08 06:44:19;;;;;;;61.60;35.50;;;;;;;11.62;100.00;95194.41;5004756;28;20219;-77
2022/11/08 06:46:46;;;;;;;53.77;30.20;;;;;;;11.59;100.00;95192.22;4998897;28;20200;-78
2022/11/08 06:49:13;;;;;;;49.80;29.90;;;;;;;11.65;100.00;95180.97;5000201;28;20204;-76
2022/11/08 06:51:40;;;;;;;49.90;29.47;;;;;;;11.71;100.00;95196.59;5002060;28;20279;-78
2022/11/08 06:54:07;;;;;;;49.20;28.67;;;;;;;11.79;100.00;95190.31;5000850;28;20195;-78
2022/11/08 06:56:35;;;;;;;56.10;30.60;;;;;;;11.76;100.00;95194.16;5002127;28;20250;-76
2022/11/08 06:59:02;;;;;;;49.17;28.93;;;;;;;11.63;100.00;95196.78;5001282;28;20211;-77
2022/11/08 07:01:29;;;;;;;50.97;31.00;;;;;;;11.45;100.00;95196.72;4995327;28;20751;-78
2022/11/08 07:03:56;;;;;;;54.63;30.77;;;;;;;11.50;100.00;95196.88;4999107;28;20210;-77
2022/11/08 07:06:22;;;;;;;52.93;33.33;;;;;;;11.68;100.00;95201.38;5001471;28;20199;-77
2022/11/08 07:08:49;;;;;;;60.33;37.73;;;;;;;11.77;100.00;95198.34;4996750;28;20681;-79
2022/11/08 07:11:16;;;;;;;75.30;41.67;;;;;;;11.88;100.00;95204.69;4994599;28;20203;-78
2022/11/08 07:13:46;;;;;;;77.30;46.33;;;;;;;11.98;100.00;95199.78;4997495;28;20234;-75
2022/11/08 07:16:13;;;;;;;81.57;47.40;;;;;;;11.97;100.00;95206.00;4998843;28;20282;-75
2022/11/08 07:18:40;;;;;;;87.07;48.83;;;;;;;12.03;100.00;95199.16;5000391;28;20208;-75
2022/11/08 07:21:07;;;;;;;79.03;47.73;;;;;;;12.07;100.00;95201.09;4999614;28;20192;-75
2022/11/08 07:23:36;;;;;;;78.87;43.73;;;;;;;12.11;100.00;95204.88;4999664;28;20232;-75
2022/11/08 07:26:07;;;;;;;77.00;47.07;;;;;;;11.98;100.00;95204.97;5001189;28;20191;-74
2022/11/08 07:28:34;;;;;;;77.60;43.53;;;;;;;11.77;100.00;95206.16;4998983;28;20192;-74
2022/11/08 07:31:05;;;;;;;69.70;41.63;;;;;;;11.46;100.00;95192.31;4998445;28;20204;-77
2022/11/08 07:33:31;;;;;;;74.90;42.23;;;;;;;11.57;100.00;95189.81;4998976;28;20756;-75
2022/11/08 07:36:02;;;;;;;70.70;39.27;;;;;;;11.71;100.00;95201.00;4999465;28;20203;-76
2022/11/08 07:38:31;;;;;;;62.93;37.80;;;;;;;11.85;100.00;95203.28;4999909;28;20266;-76
2022/11/08 07:40:58;;;;;;;80.27;45.27;;;;;;;12.03;100.00;95215.59;5003083;28;20203;-78
2022/11/08 07:43:26;;;;;;;83.30;46.23;;;;;;;12.15;100.00;95210.47;4997944;28;20187;-77
2022/11/08 07:45:55;;;;;;;80.53;46.43;;;;;;;12.28;100.00;95207.75;4997921;28;20223;-76
2022/11/08 07:48:24;;;;;;;75.17;43.47;;;;;;;12.37;100.00;95209.06;4997994;28;20199;-78
2022/11/08 07:50:51;;;;;;;70.43;40.80;;;;;;;12.45;100.00;95214.00;5001124;28;20291;-77
2022/11/08 07:53:18;;;;;;;63.83;36.97;;;;;;;12.52;100.00;95204.31;4997340;28;20263;-78
2022/11/08 07:55:47;;;;;;;63.47;34.17;;;;;;;12.59;100.00;95209.44;5000816;28;20220;-77
2022/11/08 07:58:14;;;;;;;53.90;33.03;;;;;;;12.69;100.00;95213.16;5004498;28;20196;-78
2022/11/08 08:00:43;;;;;;;57.00;32.83;;;;;;;12.81;100.00;95210.63;5000041;28;20855;-77
2022/11/08 08:03:11;;;;;;;55.30;32.47;;;;;;;12.87;100.00;95201.94;5000997;28;20658;-77
2022/11/08 08:05:41;;;;;;;52.40;31.90;;;;;;;12.99;100.00;95210.59;5003759;28;20334;-77
2022/11/08 08:08:09;;;;;;;55.73;31.97;;;;;;;12.99;100.00;95208.00;5000160;28;20214;-79
2022/11/08 08:10:36;;;;;;;55.83;32.73;;;;;;;12.69;100.00;95204.53;5004412;28;20203;-77
2022/11/08 08:13:05;;;;;;;59.90;34.07;;;;;;;12.42;100.00;95210.03;5004878;28;20215;-78
2022/11/08 08:15:32;;;;;;;53.43;32.90;;;;;;;12.29;100.00;95210.16;5003035;28;20216;-78
2022/11/08 08:18:03;;;;;;;61.37;35.87;;;;;;;12.21;100.00;95197.38;5005006;28;20207;-78
2022/11/08 08:20:30;;;;;;;66.33;36.60;;;;;;;12.31;100.00;95208.13;4998617;28;20291;-77
2022/11/08 08:22:59;;;;;;;61.97;35.47;;;;;;;12.41;100.00;95211.03;5003797;28;20196;-77
2022/11/08 08:25:27;;;;;;;56.17;31.10;;;;;;;12.36;100.00;95210.88;5001240;28;20195;-78
2022/11/08 08:27:56;;;;;;;51.87;30.90;;;;;;;12.19;100.00;95212.44;5002183;28;20291;-77
2022/11/08 08:30:24;;;;;;;51.70;31.23;;;;;;;12.14;100.00;95211.47;5001925;28;20196;-78
2022/11/08 08:32:51;;;;;;;55.07;31.37;;;;;;;12.16;100.00;95215.47;5002459;28;20298;-78
2022/11/08 08:35:18;;;;;;;52.37;32.43;;;;;;;12.29;100.00;95214.56;5001781;28;20202;-77
2022/11/08 08:37:45;;;;;;;53.53;31.67;;;;;;;12.37;100.00;95212.47;5000475;28;20203;-76
2022/11/08 08:40:13;;;;;;;53.97;32.07;;;;;;;12.45;100.00;95217.41;5003087;28;20227;-77
2022/11/08 08:42:40;;;;;;;49.97;30.77;;;;;;;12.50;100.00;95214.16;5002888;28;20209;-77
2022/11/08 08:45:09;;;;;;;50.47;30.70;;;;;;;12.64;100.00;95220.03;5000940;28;20191;-78
2022/11/08 08:47:36;;;;;;;46.23;29.10;;;;;;;12.77;100.00;95219.91;5003091;28;20200;-77
2022/11/08 08:50:03;;;;;;;50.87;27.67;;;;;;;12.86;100.00;95213.38;5001074;28;20207;-78
2022/11/08 08:52:30;;;;;;;44.60;26.97;;;;;;;13.00;100.00;95228.66;5002770;28;20236;-78
2022/11/08 08:54:56;;;;;;;48.47;27.87;;;;;;;13.05;100.00;95226.19;5002656;28;20218;-77
2022/11/08 08:57:25;;;;;;;45.43;27.33;;;;;;;12.96;100.00;95222.28;5001548;28;20196;-79
2022/11/08 08:59:51;;;;;;;45.33;27.23;;;;;;;12.98;100.00;95225.50;4998914;28;21012;-78
2022/11/08 09:02:18;;;;;;;42.63;25.57;;;;;;;13.04;100.00;95221.97;5001914;28;20204;-77
2022/11/08 09:04:45;;;;;;;45.10;25.27;;;;;;;13.12;100.00;95225.34;4999743;28;20287;-78
2022/11/08 09:07:12;;;;;;;43.33;24.57;;;;;;;13.15;100.00;95209.25;5004372;28;20218;-78
2022/11/08 09:09:38;;;;;;;41.27;23.43;;;;;;;13.29;100.00;95221.13;5004275;28;20231;-79
2022/11/08 09:12:06;;;;;;;50.60;30.83;;;;;;;13.36;100.00;95217.41;4995056;28;20192;-78
2022/11/08 09:14:34;;;;;;;38.40;23.43;;;;;;;13.43;100.00;95212.91;5000891;28;20195;-77
2022/11/08 09:17:01;;;;;;;41.87;24.60;;;;;;;13.20;100.00;95210.19;5000136;28;20200;-77
2022/11/08 09:19:28;;;;;;;44.23;24.57;;;;;;;12.91;100.00;95218.72;5001884;28;20195;-78
2022/11/08 09:21:54;;;;;;;47.33;26.60;;;;;;;12.78;100.00;95211.06;5008538;28;20600;-78
2022/11/08 09:24:21;;;;;;;44.03;27.03;;;;;;;12.62;100.00;95217.63;5005933;28;20192;-77
2022/11/08 09:26:48;;;;;;;43.10;25.67;;;;;;;12.50;100.00;95216.75;4989681;28;20211;-78
2022/11/08 09:29:15;;;;;;;46.03;27.00;;;;;;;12.59;100.00;95217.25;5004672;28;20218;-78
2022/11/08 09:31:43;;;;;;;46.30;27.10;;;;;;;12.78;100.00;95222.31;5007106;28;20207;-77
2022/11/08 09:34:10;;;;;;;47.57;26.90;;;;;;;13.01;100.00;95212.00;5007202;28;20222;-79
2022/11/08 09:36:37;;;;;;;46.77;26.80;;;;;;;13.17;100.00;95221.06;5006212;28;20212;-77
2022/11/08 09:39:04;;;;;;;47.23;26.93;;;;;;;13.36;100.00;95209.56;5003289;28;20940;-77
2022/11/08 09:41:53;;;;;;;42.43;26.73;;;;;;;13.48;100.00;95213.03;5004264;28;20207;-78
2022/11/08 09:44:39;;;;;;;42.90;23.50;;;;;;;13.64;100.00;95209.81;5001604;28;20191;-78
2022/11/08 09:47:13;;;;;;;37.00;23.13;;;;;;;13.81;100.00;95211.75;5002406;28;20201;-78
2022/11/08 09:49:45;;;;;;;40.30;23.73;;;;;;;13.79;100.00;95201.56;5000911;28;20196;-78
2022/11/08 09:52:21;;;;;;;41.23;25.60;;;;;;;13.71;100.00;95203.69;5009688;28;21015;-80
2022/11/08 09:54:50;;;;;;;44.70;25.93;;;;;;;13.57;100.00;95192.63;5003047;28;20187;-78
2022/11/08 09:57:24;;;;;;;40.73;24.73;;;;;;;13.68;100.00;95211.97;5009520;28;20191;-79
2022/11/08 10:00:02;;;;;;;44.40;24.50;;;;;;;13.69;100.00;95200.47;5001341;28;20203;-79
2022/11/08 10:02:31;;;;;;;42.00;25.37;;;;;;;13.88;100.00;95196.78;5004724;28;20232;-79
2022/11/08 10:05:02;;;;;;;43.80;26.03;;;;;;;13.97;100.00;95204.06;4998635;28;20195;-79
2022/11/08 10:07:34;;;;;;;42.97;25.23;;;;;;;13.91;100.00;95193.75;4996074;28;20207;-79
2022/11/08 10:10:23;;;;;;;43.67;25.00;;;;;;;13.56;100.00;95183.19;5005397;28;20207;-77
2022/11/08 10:13:00;;;;;;;47.73;27.60;;;;;;;13.50;100.00;95181.47;5000379;28;20200;-77
2022/11/08 10:15:35;;;;;;;41.13;23.80;;;;;;;13.47;100.00;95169.66;4997750;28;20328;-78
2022/11/08 10:18:28;;;;;;;37.17;22.07;;;;;;;13.72;100.00;95190.38;5003415;28;20207;-78
2022/11/08 10:21:05;;;;;;;34.70;22.10;;;;;;;13.97;100.00;95179.75;5002328;28;20629;-77
2022/11/08 10:23:42;;;;;;;41.13;25.60;;;;;;;14.26;100.00;95175.47;4999799;28;20249;-78
2022/11/08 10:26:14;;;;;;;40.73;24.17;;;;;;;14.59;100.00;95176.50;5002088;28;20195;-78
2022/11/08 10:28:48;;;;;;;38.97;23.90;;;;;;;14.84;100.00;95178.84;5004894;28;20200;-78
2022/11/08 10:31:17;;;;;;;34.77;22.30;;;;;;;15.09;100.00;95170.72;5001109;28;20199;-78
2022/11/08 10:33:50;;;;;;;37.87;21.60;;;;;;;15.35;100.00;95170.91;5001629;28;20294;-78
2022/11/08 10:36:22;;;;;;;34.70;21.73;;;;;;;15.23;100.00;95158.94;5001494;28;20218;-78
2022/11/08 10:38:57;;;;;;;35.80;22.20;;;;;;;14.91;100.00;95166.44;5001338;28;20192;-78
2022/11/08 10:41:31;;;;;;;41.90;23.37;;;;;;;14.81;100.00;95160.19;5000550;28;20199;-77
2022/11/08 10:44:04;;;;;;;39.37;22.23;;;;;;;15.31;100.00;95155.94;4999892;28;20314;-76
2022/11/08 10:46:38;;;;;;;31.77;19.87;;;;;;;15.58;96.94;95158.78;4997657;28;20215;-78
2022/11/08 10:49:13;;;;;;;33.67;19.77;;;;;;;15.73;96.39;95162.44;5001534;28;20196;-76
2022/11/08 10:51:40;;;;;;;33.67;19.17;;;;;;;15.97;95.47;95155.25;4999071;28;20242;-77
2022/11/08 10:54:07;;;;;;;35.93;20.43;;;;;;;16.21;94.51;95159.28;4999281;28;20220;-78
2022/11/08 10:56:54;;;;;;;34.13;22.10;;;;;;;16.65;93.50;95154.94;4998108;28;20207;-78
2022/11/08 10:59:30;;;;;;;33.47;20.27;;;;;;;17.31;92.09;95151.28;5003259;28;20283;-77
2022/11/08 11:01:57;;;;;;;31.37;18.90;;;;;;;17.14;88.17;95149.75;5001307;28;20198;-77
2022/11/08 11:04:29;;;;;;;27.30;18.77;;;;;;;16.22;90.67;95149.59;5000996;28;20195;-77
2022/11/08 11:07:02;;;;;;;31.57;19.93;;;;;;;15.64;92.68;95136.91;5001569;28;20199;-77
2022/11/08 11:09:29;;;;;;;33.30;19.30;;;;;;;15.60;93.75;95144.44;4999769;28;20191;-78
2022/11/08 11:11:58;;;;;;;32.83;20.53;;;;;;;15.63;95.01;95145.78;4999955;28;20187;-78
2022/11/08 11:14:25;;;;;;;29.10;19.43;;;;;;;15.70;94.57;95144.56;5001522;28;20326;-78
2022/11/08 11:16:56;;;;;;;32.53;18.67;;;;;;;15.77;94.43;95144.44;5000528;28;20195;-77
2022/11/08 11:19:23;;;;;;;27.73;18.27;;;;;;;15.75;91.69;95141.25;4998963;28;20204;-78
2022/11/08 11:21:56;;;;;;;29.13;17.60;;;;;;;15.73;90.51;95133.63;5002005;28;20739;-78
2022/11/08 11:24:23;;;;;;;27.37;18.17;;;;;;;15.73;90.94;95122.34;5001283;28;20192;-78
2022/11/08 11:27:01;;;;;;;26.27;16.93;;;;;;;15.82;89.32;95139.25;4999043;28;20211;-78
2022/11/08 11:29:30;;;;;;;30.13;17.23;;;;;;;15.83;89.37;95135.63;4997619;28;20192;-78
2022/11/08 11:31:57;;;;;;;28.27;17.37;;;;;;;15.98;89.22;95135.06;5003747;28;20191;-78
2022/11/08 11:34:35;;;;;;;27.33;17.93;;;;;;;15.88;88.38;95136.50;5002240;28;20682;-79
2022/11/08 11:37:12;;;;;;;26.73;16.90;;;;;;;15.83;88.55;95128.56;5006849;28;20249;-79
2022/11/08 11:39:48;;;;;;;27.80;17.57;;;;;;;15.78;88.51;95135.53;5006157;28;20211;-78
2022/11/08 11:42:20;;;;;;;27.70;17.40;;;;;;;15.80;89.40;95128.22;5005287;28;20194;-78